createdAt,value
2023-04-20T00:00:11.153Z,5.47
2023-04-20T00:02:39.982Z,6.28
2023-04-20T00:05:08.211Z,6.05
2023-04-20T00:07:35.933Z,5.88
2023-04-20T00:10:04.370Z,5.65
2023-04-20T00:12:31.358Z,5.60
2023-04-20T00:14:58.345Z,6.32
2023-04-20T00:17:25.775Z,6.85
2023-04-20T00:19:52.848Z,5.25
2023-04-20T00:22:20.007Z,6.28
2023-04-20T00:24:46.970Z,5.63
2023-04-20T00:27:14.033Z,6.10
2023-04-20T00:29:41.205Z,5.82
2023-04-20T00:32:08.264Z,6.50
2023-04-20T00:34:36.130Z,6.75
2023-04-20T00:37:03.147Z,7.00
2023-04-20T00:39:30.237Z,6.22
2023-04-20T00:42:05.646Z,6.82
2023-04-20T00:44:32.691Z,5.38
2023-04-20T00:47:00.219Z,6.43
2023-04-20T00:49:30.246Z,6.15
2023-04-20T00:51:59.458Z,7.28
2023-04-20T00:54:31.786Z,6.82
2023-04-20T00:56:59.882Z,6.13
2023-04-20T00:59:26.896Z,6.30
2023-04-20T01:01:54.096Z,7.30
2023-04-20T01:04:21.408Z,6.40
2023-04-20T01:06:48.569Z,6.70
2023-04-20T01:09:15.845Z,6.60
2023-04-20T01:11:43.038Z,6.72
2023-04-20T01:14:10.096Z,8.15
2023-04-20T01:16:37.795Z,6.90
2023-04-20T01:19:04.870Z,7.35
2023-04-20T01:21:32.268Z,7.18
2023-04-20T01:23:59.277Z,7.90
2023-04-20T01:26:27.963Z,7.80
2023-04-20T01:28:55.135Z,8.15
2023-04-20T01:31:22.406Z,7.80
2023-04-20T01:33:50.204Z,8.57
2023-04-20T01:36:17.278Z,8.15
2023-04-20T01:38:44.406Z,8.32
2023-04-20T01:41:11.780Z,7.55
2023-04-20T01:43:39.943Z,8.18
2023-04-20T01:46:07.439Z,9.00
2023-04-20T01:48:34.753Z,8.40
2023-04-20T01:51:01.799Z,8.25
2023-04-20T01:53:29.013Z,8.45
2023-04-20T01:55:56.078Z,8.10
2023-04-20T01:58:23.133Z,8.07
2023-04-20T02:00:50.376Z,8.25
2023-04-20T02:03:17.813Z,8.10
2023-04-20T02:05:45.346Z,8.75
2023-04-20T02:08:12.345Z,8.95
2023-04-20T02:10:39.334Z,8.60
2023-04-20T02:13:06.361Z,8.70
2023-04-20T02:15:33.425Z,8.77
2023-04-20T02:18:00.528Z,8.70
2023-04-20T02:20:27.941Z,9.13
2023-04-20T02:22:55.078Z,9.00
2023-04-20T02:25:22.273Z,8.98
2023-04-20T02:27:49.986Z,8.60
2023-04-20T02:30:18.311Z,9.77
2023-04-20T02:32:45.362Z,9.55
2023-04-20T02:35:12.564Z,9.75
2023-04-20T02:37:39.596Z,10.15
2023-04-20T02:40:08.303Z,9.43
2023-04-20T02:42:35.359Z,9.57
2023-04-20T02:45:03.077Z,9.90
2023-04-20T02:47:30.518Z,9.00
2023-04-20T02:49:57.569Z,10.45
2023-04-20T02:52:24.595Z,8.85
2023-04-20T02:54:51.596Z,9.00
2023-04-20T02:57:18.742Z,10.40
2023-04-20T02:59:45.702Z,9.02
2023-04-20T03:02:12.953Z,10.27
2023-04-20T03:04:40.105Z,10.10
2023-04-20T03:07:07.500Z,9.00
2023-04-20T03:09:34.489Z,9.13
2023-04-20T03:12:02.808Z,10.05
2023-04-20T03:14:29.989Z,9.60
2023-04-20T03:16:57.520Z,10.27
2023-04-20T03:19:24.669Z,9.45
2023-04-20T03:21:51.705Z,10.30
2023-04-20T03:24:19.417Z,10.43
2023-04-20T03:26:46.483Z,10.90
2023-04-20T03:29:13.417Z,10.23
2023-04-20T03:31:40.582Z,10.52
2023-04-20T03:34:07.708Z,10.43
2023-04-20T03:36:36.009Z,10.70
2023-04-20T03:39:04.592Z,11.27
2023-04-20T03:41:32.261Z,10.10
2023-04-20T03:43:59.320Z,11.32
2023-04-20T03:46:26.559Z,11.48
2023-04-20T03:48:53.870Z,11.77
2023-04-20T03:51:20.943Z,10.15
2023-04-20T03:53:47.996Z,10.95
2023-04-20T03:56:15.449Z,11.77
2023-04-20T03:58:42.414Z,10.20
2023-04-20T04:01:13.452Z,10.75
2023-04-20T04:03:40.772Z,9.50
2023-04-20T04:06:09.715Z,11.20
2023-04-20T04:08:36.774Z,9.40
2023-04-20T04:11:03.795Z,11.10
2023-04-20T04:13:32.014Z,10.90
2023-04-20T04:16:01.092Z,10.70
2023-04-20T04:18:32.732Z,10.90
2023-04-20T04:20:59.854Z,11.23
2023-04-20T04:23:26.902Z,11.00
2023-04-20T04:25:54.481Z,9.57
2023-04-20T04:28:22.019Z,10.82
2023-04-20T04:30:49.060Z,10.02
2023-04-20T04:33:19.229Z,11.10
2023-04-20T04:35:46.490Z,11.15
2023-04-20T04:38:14.300Z,10.70
2023-04-20T04:40:42.126Z,10.00
2023-04-20T04:43:10.607Z,11.40
2023-04-20T04:45:42.217Z,10.32
2023-04-20T04:48:12.263Z,11.50
2023-04-20T04:50:40.160Z,10.57
2023-04-20T04:53:07.493Z,10.85
2023-04-20T04:55:34.531Z,10.75
2023-04-20T04:58:01.966Z,10.77
2023-04-20T05:00:29.675Z,11.90
2023-04-20T05:02:57.344Z,9.75
2023-04-20T05:05:25.683Z,11.25
2023-04-20T05:07:52.666Z,11.13
2023-04-20T05:10:19.814Z,10.75
2023-04-20T05:12:47.085Z,11.27
2023-04-20T05:15:14.265Z,11.38
2023-04-20T05:17:41.282Z,11.30
2023-04-20T05:20:10.663Z,12.15
2023-04-20T05:22:38.501Z,11.43
2023-04-20T05:25:08.742Z,11.90
2023-04-20T05:27:35.828Z,10.80
2023-04-20T05:30:13.055Z,11.57
2023-04-20T05:32:44.360Z,11.98
2023-04-20T05:35:11.409Z,12.65
2023-04-20T05:37:38.418Z,11.05
2023-04-20T05:40:07.278Z,10.43
2023-04-20T05:42:34.212Z,11.20
2023-04-20T05:45:01.300Z,12.45
2023-04-20T05:47:28.340Z,13.40
2023-04-20T05:49:55.438Z,16.15
2023-04-20T05:52:22.464Z,12.80
2023-04-20T05:54:50.121Z,12.40
2023-04-20T05:57:17.121Z,11.55
2023-04-20T05:59:44.553Z,16.92
2023-04-20T06:02:11.701Z,14.73
2023-04-20T06:04:38.901Z,12.77
2023-04-20T06:07:06.354Z,18.48
2023-04-20T06:09:33.422Z,21.77
2023-04-20T06:12:00.851Z,11.50
2023-04-20T06:14:27.896Z,12.75
2023-04-20T06:16:54.880Z,13.00
2023-04-20T06:19:21.849Z,12.73
2023-04-20T06:21:48.912Z,12.43
2023-04-20T06:24:15.881Z,12.50
2023-04-20T06:26:42.907Z,13.70
2023-04-20T06:29:09.921Z,12.65
2023-04-20T06:31:37.058Z,13.38
2023-04-20T06:34:04.069Z,13.10
2023-04-20T06:36:31.362Z,11.80
2023-04-20T06:38:58.422Z,12.63
2023-04-20T06:41:25.497Z,14.15
2023-04-20T06:43:52.472Z,13.18
2023-04-20T06:46:19.442Z,12.32
2023-04-20T06:48:46.509Z,12.70
2023-04-20T06:51:14.443Z,12.98
2023-04-20T06:53:41.521Z,12.80
2023-04-20T06:56:08.749Z,12.40
2023-04-20T06:58:35.765Z,12.23
2023-04-20T07:01:03.172Z,12.98
2023-04-20T07:03:30.543Z,12.75
2023-04-20T07:05:57.718Z,11.98
2023-04-20T07:08:24.817Z,11.38
2023-04-20T07:10:51.874Z,12.60
2023-04-20T07:13:18.938Z,12.40
2023-04-20T07:15:46.429Z,12.50
2023-04-20T07:18:13.396Z,12.38
2023-04-20T07:20:40.524Z,12.32
2023-04-20T07:23:07.500Z,13.23
2023-04-20T07:25:34.523Z,13.73
2023-04-20T07:28:01.639Z,12.93
2023-04-20T07:30:28.742Z,13.15
2023-04-20T07:32:55.744Z,13.77
2023-04-20T07:35:23.026Z,12.70
2023-04-20T07:37:50.017Z,13.00
2023-04-20T07:40:17.128Z,12.40
2023-04-20T07:42:44.243Z,13.55
2023-04-20T07:45:12.688Z,12.52
2023-04-20T07:47:39.902Z,13.55
2023-04-20T07:50:08.368Z,13.35
2023-04-20T07:52:36.097Z,14.10
2023-04-20T07:55:03.361Z,13.13
2023-04-20T07:57:30.518Z,12.30
2023-04-20T07:59:57.599Z,13.32
2023-04-20T08:02:24.818Z,14.48
2023-04-20T08:04:52.132Z,12.52
2023-04-20T08:07:19.415Z,13.75
2023-04-20T08:09:46.530Z,13.85
2023-04-20T08:12:13.509Z,14.20
2023-04-20T08:14:41.563Z,15.05
2023-04-20T08:17:08.727Z,13.98
2023-04-20T08:19:36.575Z,12.75
2023-04-20T08:22:04.485Z,13.25
2023-04-20T08:24:31.719Z,13.65
2023-04-20T08:26:59.547Z,14.02
2023-04-20T08:29:26.682Z,12.90
2023-04-20T08:31:53.754Z,13.07
2023-04-20T08:34:20.905Z,13.20
2023-04-20T08:36:48.028Z,14.63
2023-04-20T08:39:19.765Z,13.40
2023-04-20T08:41:48.153Z,13.50
2023-04-20T08:44:15.491Z,13.98
2023-04-20T08:46:47.196Z,12.30
2023-04-20T08:49:17.376Z,13.45
2023-04-20T08:51:46.349Z,13.65
2023-04-20T08:54:13.562Z,12.45
2023-04-20T08:56:43.965Z,12.20
2023-04-20T08:59:13.193Z,12.90
2023-04-20T09:01:42.223Z,13.80
2023-04-20T09:04:27.770Z,13.60
2023-04-20T09:06:56.752Z,15.13
2023-04-20T09:09:25.798Z,13.45
2023-04-20T09:12:07.973Z,13.13
2023-04-20T09:14:46.124Z,13.85
2023-04-20T09:17:15.344Z,13.93
2023-04-20T09:19:45.452Z,13.13
2023-04-20T09:22:12.821Z,13.82
2023-04-20T09:24:41.868Z,13.25
2023-04-20T09:27:19.529Z,13.07
2023-04-20T09:29:58.948Z,14.18
2023-04-20T09:32:28.349Z,13.27
2023-04-20T09:34:55.636Z,14.35
2023-04-20T09:37:23.194Z,14.35
2023-04-20T09:39:51.411Z,13.43
2023-04-20T09:42:18.630Z,12.38
2023-04-20T09:44:46.362Z,13.35
2023-04-20T09:47:19.344Z,14.02
2023-04-20T09:49:47.572Z,12.68
2023-04-20T09:52:21.171Z,14.85
2023-04-20T09:54:52.069Z,14.23
2023-04-20T09:57:19.895Z,13.82
2023-04-20T09:59:47.582Z,14.30
2023-04-20T10:02:15.024Z,15.88
2023-04-20T10:04:54.157Z,13.48
2023-04-20T10:07:33.235Z,13.82
2023-04-20T10:10:15.960Z,15.88
2023-04-20T10:13:10.069Z,15.05
2023-04-20T10:15:42.198Z,14.43
2023-04-20T10:18:26.711Z,13.38
2023-04-20T10:21:06.568Z,15.15
2023-04-20T10:23:33.666Z,13.40
2023-04-20T10:26:02.810Z,13.82
2023-04-20T10:28:40.620Z,15.35
2023-04-20T10:31:09.315Z,14.63
2023-04-20T10:33:49.706Z,12.95
2023-04-20T10:36:29.636Z,13.75
2023-04-20T10:38:57.552Z,14.13
2023-04-20T10:41:25.107Z,13.90
2023-04-20T10:43:52.299Z,15.00
2023-04-20T10:46:21.979Z,13.60
2023-04-20T10:49:01.696Z,13.50
2023-04-20T10:51:29.405Z,14.50
2023-04-20T10:54:05.689Z,14.48
2023-04-20T10:56:39.343Z,12.43
2023-04-20T10:59:10.365Z,13.07
2023-04-20T11:01:37.952Z,13.50
2023-04-20T11:04:05.250Z,13.00
2023-04-20T11:06:32.522Z,12.87
2023-04-20T11:08:59.590Z,13.20
2023-04-20T11:11:28.489Z,12.40
2023-04-20T11:14:09.222Z,13.17
2023-04-20T11:16:50.462Z,13.37
2023-04-20T11:19:27.934Z,13.00
2023-04-20T11:21:55.065Z,12.63
2023-04-20T11:24:24.464Z,11.30
2023-04-20T11:26:54.663Z,10.10
2023-04-20T11:29:28.465Z,10.37
2023-04-20T11:31:56.154Z,9.67
2023-04-20T11:34:24.249Z,9.87
2023-04-20T11:36:51.699Z,9.17
2023-04-20T11:39:29.908Z,10.50
2023-04-20T11:41:57.710Z,10.30
2023-04-20T11:44:26.071Z,9.37
2023-04-20T11:46:54.615Z,9.53
2023-04-20T11:49:22.024Z,9.20
2023-04-20T11:51:49.060Z,10.57
2023-04-20T11:54:16.334Z,8.83
2023-04-20T11:56:45.048Z,10.67
2023-04-20T11:59:20.650Z,9.13
2023-04-20T12:01:48.457Z,11.43
2023-04-20T12:04:16.492Z,9.50
2023-04-20T12:06:45.079Z,8.13
2023-04-20T12:09:13.647Z,8.23
2023-04-20T12:11:41.021Z,8.50
2023-04-20T12:14:08.178Z,7.40
2023-04-20T12:16:35.325Z,7.90
2023-04-20T12:19:02.512Z,6.90
2023-04-20T12:21:29.539Z,8.10
2023-04-20T12:23:58.108Z,7.90
2023-04-20T12:26:34.868Z,8.13
2023-04-20T12:29:04.849Z,6.87
2023-04-20T12:31:31.984Z,7.60
2023-04-20T12:33:59.084Z,6.80
2023-04-20T12:36:26.433Z,6.90
2023-04-20T12:38:55.575Z,7.27
2023-04-20T12:41:23.830Z,6.83
2023-04-20T12:43:51.545Z,6.60
2023-04-20T12:46:18.753Z,7.10
2023-04-20T12:48:46.315Z,6.50
2023-04-20T12:51:14.812Z,6.90
2023-04-20T12:53:42.090Z,6.60
2023-04-20T12:56:09.061Z,7.07
2023-04-20T12:58:36.183Z,6.73
2023-04-20T13:01:03.993Z,6.63
2023-04-20T13:03:31.402Z,6.60
2023-04-20T13:06:00.446Z,5.83
2023-04-20T13:08:27.773Z,5.40
2023-04-20T13:10:54.821Z,6.40
2023-04-20T13:13:21.940Z,6.93
2023-04-20T13:15:48.990Z,6.50
2023-04-20T13:18:16.023Z,6.90
2023-04-20T13:20:43.014Z,6.73
2023-04-20T13:23:10.101Z,5.57
2023-04-20T13:25:38.830Z,5.80
2023-04-20T13:28:06.136Z,5.67
2023-04-20T13:30:33.308Z,5.13
2023-04-20T13:33:01.299Z,4.90
2023-04-20T13:35:28.418Z,5.37
2023-04-20T13:37:55.568Z,5.33
2023-04-20T13:40:22.812Z,6.17
2023-04-20T13:42:49.961Z,5.97
2023-04-20T13:45:17.524Z,6.23
2023-04-20T13:47:44.621Z,5.80
2023-04-20T13:50:11.703Z,6.37
2023-04-20T13:52:38.751Z,6.60
2023-04-20T13:55:06.233Z,5.63
2023-04-20T13:57:33.343Z,7.30
2023-04-20T14:00:01.547Z,6.50
2023-04-20T14:02:29.325Z,6.40
2023-04-20T14:04:56.933Z,6.00
2023-04-20T14:07:24.115Z,6.30
2023-04-20T14:09:52.896Z,7.13
2023-04-20T14:12:19.910Z,6.07
2023-04-20T14:14:46.979Z,6.50
2023-04-20T14:17:14.792Z,6.70
2023-04-20T14:19:41.859Z,6.10
2023-04-20T14:22:08.843Z,7.77
2023-04-20T14:24:35.862Z,7.47
2023-04-20T14:27:02.940Z,6.93
2023-04-20T14:29:29.929Z,7.20
2023-04-20T14:31:57.054Z,7.03
2023-04-20T14:34:24.159Z,8.27
2023-04-20T14:36:51.237Z,7.70
2023-04-20T14:39:20.934Z,8.20
2023-04-20T14:41:47.954Z,9.17
2023-04-20T14:44:15.114Z,7.80
2023-04-20T14:46:42.594Z,8.43
2023-04-20T14:49:11.001Z,7.70
2023-04-20T14:51:38.039Z,8.10
2023-04-20T14:54:05.070Z,7.93
2023-04-20T14:56:32.580Z,8.90
2023-04-20T14:58:59.812Z,8.10
2023-04-20T15:01:27.996Z,8.60
2023-04-20T15:03:55.376Z,7.57
2023-04-20T15:06:22.882Z,7.57
2023-04-20T15:08:50.537Z,8.50
2023-04-20T15:11:17.525Z,7.67
2023-04-20T15:13:44.544Z,7.77
2023-04-20T15:16:11.581Z,7.63
2023-04-20T15:18:39.255Z,8.20
2023-04-20T15:21:08.496Z,6.77
2023-04-20T15:23:35.540Z,6.93
2023-04-20T15:26:02.830Z,7.73
2023-04-20T15:28:29.957Z,8.90
2023-04-20T15:30:56.960Z,8.93
2023-04-20T15:33:23.907Z,8.43
2023-04-20T15:35:50.933Z,7.80
2023-04-20T15:38:17.982Z,8.13
2023-04-20T15:40:45.061Z,8.30
2023-04-20T15:43:12.096Z,8.07
2023-04-20T15:45:39.111Z,8.30
2023-04-20T15:48:06.385Z,9.20
2023-04-20T15:50:33.524Z,7.70
2023-04-20T15:53:00.612Z,7.80
2023-04-20T15:55:27.730Z,8.47
2023-04-20T15:57:57.524Z,7.40
2023-04-20T16:00:25.132Z,8.63
2023-04-20T16:02:53.884Z,9.40
2023-04-20T16:05:21.938Z,8.67
2023-04-20T16:07:48.979Z,9.00
2023-04-20T16:10:16.193Z,9.20
2023-04-20T16:12:43.193Z,8.60
2023-04-20T16:15:10.501Z,9.80
2023-04-20T16:17:37.579Z,10.47
2023-04-20T16:20:05.697Z,9.00
2023-04-20T16:22:32.724Z,8.60
2023-04-20T16:24:59.765Z,8.87
2023-04-20T16:27:28.010Z,9.77
2023-04-20T16:29:55.101Z,8.80
2023-04-20T16:32:22.377Z,10.50
2023-04-20T16:34:49.506Z,9.00
2023-04-20T16:37:16.701Z,9.30
2023-04-20T16:39:44.044Z,9.20
2023-04-20T16:42:11.080Z,9.00
2023-04-20T16:44:40.266Z,9.07
2023-04-20T16:47:08.808Z,8.63
2023-04-20T16:49:36.013Z,9.80
2023-04-20T16:52:03.018Z,9.80
2023-04-20T16:54:30.155Z,10.47
2023-04-20T16:56:57.525Z,9.70
2023-04-20T16:59:24.620Z,13.47
2023-04-20T17:01:51.580Z,12.50
2023-04-20T17:04:18.995Z,10.70
2023-04-20T17:06:46.898Z,9.07
2023-04-20T17:09:14.841Z,9.60
2023-04-20T17:11:41.860Z,9.70
2023-04-20T17:14:09.217Z,10.40
2023-04-20T17:16:36.310Z,9.10
2023-04-20T17:19:03.885Z,10.70
2023-04-20T17:21:31.010Z,10.07
2023-04-20T17:23:58.034Z,10.47
2023-04-20T17:26:25.218Z,8.67
2023-04-20T17:28:52.413Z,9.50
2023-04-20T17:31:19.446Z,8.40
2023-04-20T17:33:46.741Z,8.30
2023-04-20T17:36:13.712Z,9.80
2023-04-20T17:38:40.847Z,8.80
2023-04-20T17:41:07.838Z,10.20
2023-04-20T17:43:37.483Z,9.17
2023-04-20T17:46:04.957Z,9.70
2023-04-20T17:48:31.920Z,9.70
2023-04-20T17:50:59.125Z,8.97
2023-04-20T17:53:26.617Z,9.10
2023-04-20T17:55:54.125Z,9.90
2023-04-20T17:58:21.217Z,10.70
2023-04-20T18:00:48.372Z,10.70
2023-04-20T18:03:15.898Z,10.13
2023-04-20T18:05:43.344Z,11.17
2023-04-20T18:08:11.020Z,12.40
2023-04-20T18:10:38.607Z,11.80
2023-04-20T18:13:06.222Z,12.83
2023-04-20T18:15:33.402Z,13.00
2023-04-20T18:18:00.625Z,12.83
2023-04-20T18:20:28.755Z,11.97
2023-04-20T18:22:57.240Z,12.43
2023-04-20T18:25:25.005Z,11.50
2023-04-20T18:27:52.282Z,12.73
2023-04-20T18:30:19.480Z,20.65
2023-04-20T18:32:46.783Z,17.55
2023-04-20T18:35:14.482Z,18.58
2023-04-20T18:37:43.513Z,18.33
2023-04-20T18:40:16.092Z,19.95
2023-04-20T18:42:44.095Z,16.35
2023-04-20T18:45:16.701Z,26.00
2023-04-20T18:47:44.358Z,25.23
2023-04-20T18:50:12.510Z,17.45
2023-04-20T18:52:40.113Z,26.88
2023-04-20T18:55:09.184Z,14.75
2023-04-20T18:57:37.086Z,12.88
2023-04-20T19:00:08.425Z,20.67
2023-04-20T19:02:36.018Z,23.45
2023-04-20T19:05:05.530Z,20.50
2023-04-20T19:07:34.129Z,20.05
2023-04-20T19:10:03.176Z,17.95
2023-04-20T19:12:32.052Z,16.38
2023-04-20T19:15:05.914Z,15.15
2023-04-20T19:17:34.711Z,13.43
2023-04-20T19:20:04.624Z,14.25
2023-04-20T19:22:32.972Z,13.65
2023-04-20T19:25:01.859Z,13.88
2023-04-20T19:27:29.005Z,14.45
2023-04-20T19:29:56.985Z,15.25
2023-04-20T19:32:24.992Z,14.95
2023-04-20T19:34:57.933Z,13.80
2023-04-20T19:37:25.785Z,14.77
2023-04-20T19:39:53.344Z,15.05
2023-04-20T19:42:23.836Z,14.13
2023-04-20T19:44:50.935Z,13.85
2023-04-20T19:47:18.581Z,14.88
2023-04-20T19:49:46.439Z,14.50
2023-04-20T19:52:14.175Z,13.68
2023-04-20T19:54:42.076Z,15.57
2023-04-20T19:57:09.620Z,13.40
2023-04-20T19:59:41.895Z,14.90
2023-04-20T20:02:09.560Z,13.93
2023-04-20T20:04:38.046Z,14.23
2023-04-20T20:07:05.269Z,14.35
2023-04-20T20:09:33.977Z,13.30
2023-04-20T20:12:02.241Z,12.35
2023-04-20T20:14:31.154Z,14.23
2023-04-20T20:16:58.315Z,13.77
2023-04-20T20:19:25.884Z,14.02
2023-04-20T20:21:53.744Z,12.02
2023-04-20T20:24:23.753Z,13.13
2023-04-20T20:26:51.018Z,14.38
2023-04-20T20:29:18.346Z,15.10
2023-04-20T20:31:45.917Z,13.93
2023-04-20T20:34:13.018Z,13.65
2023-04-20T20:36:42.607Z,14.02
2023-04-20T20:39:09.848Z,18.45
2023-04-20T20:41:36.832Z,13.07
2023-04-20T20:44:03.849Z,11.90
2023-04-20T20:46:31.911Z,13.52
2023-04-20T20:49:00.720Z,11.95
2023-04-20T20:51:28.310Z,13.55
2023-04-20T20:53:55.262Z,13.55
2023-04-20T20:56:23.066Z,13.27
2023-04-20T20:58:50.071Z,12.00
2023-04-20T21:01:18.253Z,12.70
2023-04-20T21:03:45.404Z,11.90
2023-04-20T21:06:12.726Z,12.85
2023-04-20T21:08:39.706Z,12.82
2023-04-20T21:11:06.731Z,10.95
2023-04-20T21:13:33.960Z,13.45
2023-04-20T21:16:00.982Z,12.20
2023-04-20T21:18:28.022Z,11.63
2023-04-20T21:20:54.998Z,11.60
2023-04-20T21:23:22.078Z,11.77
2023-04-20T21:25:49.094Z,12.25
2023-04-20T21:28:16.161Z,12.20
2023-04-20T21:30:43.130Z,11.85
2023-04-20T21:33:10.180Z,11.95
2023-04-20T21:35:37.230Z,12.93
2023-04-20T21:38:05.008Z,12.75
2023-04-20T21:40:32.502Z,13.50
2023-04-20T21:42:59.497Z,13.43
2023-04-20T21:45:26.557Z,14.88
2023-04-20T21:47:55.488Z,14.18
2023-04-20T21:50:27.200Z,15.82
2023-04-20T21:52:55.487Z,15.70
2023-04-20T21:55:22.570Z,14.73
2023-04-20T21:57:49.602Z,14.82
2023-04-20T22:00:18.226Z,14.75
2023-04-20T22:02:45.836Z,14.75
2023-04-20T22:05:13.717Z,13.05
2023-04-20T22:07:40.778Z,14.27
2023-04-20T22:10:08.545Z,14.02
2023-04-20T22:12:40.468Z,15.80
2023-04-20T22:15:13.614Z,14.10
2023-04-20T22:17:41.590Z,14.32
2023-04-20T22:20:10.492Z,14.77
2023-04-20T22:22:38.856Z,16.55
2023-04-20T22:25:07.455Z,15.05
2023-04-20T22:27:35.261Z,14.80
2023-04-20T22:30:02.660Z,16.05
2023-04-20T22:32:29.701Z,15.40
2023-04-20T22:34:56.814Z,15.35
2023-04-20T22:37:23.814Z,15.52
2023-04-20T22:39:50.900Z,13.82
2023-04-20T22:42:17.858Z,15.65
2023-04-20T22:44:45.702Z,14.85
2023-04-20T22:47:12.686Z,16.00
2023-04-20T22:49:39.664Z,15.07
2023-04-20T22:52:06.942Z,15.48
2023-04-20T22:54:34.213Z,14.95
2023-04-20T22:57:02.193Z,15.95
2023-04-20T22:59:29.152Z,15.70
2023-04-20T23:01:56.180Z,13.57
2023-04-20T23:04:23.204Z,15.35
2023-04-20T23:06:50.212Z,16.25
2023-04-20T23:09:20.798Z,15.85
2023-04-20T23:11:47.997Z,15.52
2023-04-20T23:14:15.054Z,15.18
2023-04-20T23:16:42.051Z,16.38
2023-04-20T23:19:09.017Z,15.30
2023-04-20T23:21:36.025Z,13.70
2023-04-20T23:24:03.045Z,14.02
2023-04-20T23:26:30.052Z,13.75
2023-04-20T23:28:57.035Z,14.15
2023-04-20T23:31:24.304Z,13.43
2023-04-20T23:33:51.328Z,14.18
2023-04-20T23:36:18.305Z,13.45
2023-04-20T23:38:45.336Z,13.82
2023-04-20T23:41:14.410Z,12.52
2023-04-20T23:43:42.036Z,13.73
2023-04-20T23:46:09.342Z,13.32
2023-04-20T23:48:36.478Z,12.65
2023-04-20T23:51:03.544Z,13.05
2023-04-20T23:53:30.571Z,12.98
2023-04-20T23:55:57.635Z,13.07
2023-04-20T23:58:25.808Z,14.13
